createdAt,value
2022-09-24T00:02:44.994Z,6.78
2022-09-24T00:07:46.504Z,6.32
2022-09-24T00:12:48.008Z,7.43
2022-09-24T00:17:49.526Z,6.65
2022-09-24T00:22:51.016Z,6.50
2022-09-24T00:27:52.500Z,6.47
2022-09-24T00:32:54.005Z,6.13
2022-09-24T00:37:55.520Z,6.63
2022-09-24T00:42:57.306Z,6.32
2022-09-24T00:47:59.201Z,6.63
2022-09-24T00:53:03.333Z,6.50
2022-09-24T00:58:08.502Z,6.03
2022-09-24T01:03:20.841Z,6.65
2022-09-24T01:08:22.384Z,6.15
2022-09-24T01:13:54.593Z,6.55
2022-09-24T01:19:17.847Z,6.95
2022-09-24T01:24:44.890Z,6.75
2022-09-24T01:29:50.588Z,6.95
2022-09-24T01:35:07.147Z,7.25
2022-09-24T01:40:10.361Z,7.93
2022-09-24T01:45:14.128Z,6.93
2022-09-24T01:50:18.095Z,6.53
2022-09-24T01:55:23.777Z,6.55
2022-09-24T02:00:26.753Z,7.20
2022-09-24T02:05:59.915Z,6.47
2022-09-24T02:11:21.942Z,6.05
2022-09-24T02:16:29.420Z,6.55
2022-09-24T02:21:33.315Z,6.72
2022-09-24T02:26:34.871Z,6.28
2022-09-24T02:31:42.882Z,6.47
2022-09-24T02:36:44.487Z,7.03
2022-09-24T02:41:48.027Z,6.95
2022-09-24T02:46:49.945Z,7.40
2022-09-24T02:51:51.520Z,7.28
2022-09-24T02:56:53.348Z,8.02
2022-09-24T03:01:54.962Z,7.45
2022-09-24T03:06:56.686Z,8.10
2022-09-24T03:11:58.477Z,9.00
2022-09-24T03:17:00.156Z,9.27
2022-09-24T03:22:01.667Z,7.45
2022-09-24T03:27:03.301Z,8.25
2022-09-24T03:32:04.862Z,8.40
2022-09-24T03:37:06.367Z,7.85
2022-09-24T03:42:07.867Z,7.60
2022-09-24T03:47:09.342Z,6.30
2022-09-24T03:52:13.584Z,6.38
2022-09-24T03:57:15.311Z,6.35
2022-09-24T04:02:16.800Z,5.43
2022-09-24T04:07:18.619Z,6.15
2022-09-24T04:12:20.184Z,6.63
2022-09-24T04:17:21.662Z,5.63
2022-09-24T04:22:23.431Z,6.38
2022-09-24T04:27:24.926Z,6.00
2022-09-24T04:32:26.436Z,6.95
2022-09-24T04:37:27.968Z,6.60
2022-09-24T04:42:29.495Z,6.15
2022-09-24T04:47:30.982Z,7.28
2022-09-24T04:52:32.518Z,6.10
2022-09-24T04:57:34.110Z,5.90
2022-09-24T05:02:35.700Z,6.18
2022-09-24T05:07:37.989Z,6.03
2022-09-24T05:12:42.374Z,5.80
2022-09-24T05:17:43.903Z,6.70
2022-09-24T05:22:47.515Z,6.55
2022-09-24T05:27:54.647Z,6.30
2022-09-24T05:32:56.139Z,6.43
2022-09-24T05:37:57.783Z,6.10
2022-09-24T05:43:01.131Z,6.57
2022-09-24T05:48:02.718Z,6.43
2022-09-24T05:53:05.614Z,6.43
2022-09-24T05:58:10.525Z,5.95
2022-09-24T06:03:17.115Z,6.53
2022-09-24T06:08:20.475Z,6.00
2022-09-24T06:13:22.002Z,5.80
2022-09-24T06:18:23.501Z,5.75
2022-09-24T06:23:25.025Z,6.53
2022-09-24T06:28:26.665Z,6.53
2022-09-24T06:33:28.606Z,5.50
2022-09-24T06:38:30.824Z,6.22
2022-09-24T06:43:33.044Z,6.20
2022-09-24T06:48:34.648Z,6.07
2022-09-24T06:53:36.314Z,5.72
2022-09-24T06:58:38.032Z,6.57
2022-09-24T07:03:39.691Z,7.10
2022-09-24T07:08:41.342Z,6.22
2022-09-24T07:13:43.057Z,5.38
2022-09-24T07:18:44.689Z,5.28
2022-09-24T07:23:46.383Z,5.93
2022-09-24T07:28:48.029Z,5.93
2022-09-24T07:33:49.655Z,5.13
2022-09-24T07:38:51.245Z,5.75
2022-09-24T07:43:53.572Z,4.53
2022-09-24T07:48:55.690Z,4.97
2022-09-24T07:53:57.876Z,5.25
2022-09-24T07:58:59.584Z,5.47
2022-09-24T08:04:01.643Z,5.30
2022-09-24T08:09:04.484Z,5.13
2022-09-24T08:14:06.160Z,6.05
2022-09-24T08:19:09.385Z,4.80
2022-09-24T08:24:12.079Z,4.70
2022-09-24T08:29:13.784Z,5.07
2022-09-24T08:34:15.460Z,4.78
2022-09-24T08:39:17.295Z,5.75
2022-09-24T08:44:29.127Z,5.60
2022-09-24T08:49:38.282Z,5.18
2022-09-24T08:54:41.238Z,4.88
2022-09-24T08:59:47.298Z,4.97
2022-09-24T09:05:27.189Z,5.93
2022-09-24T09:10:36.419Z,5.97
2022-09-24T09:15:43.906Z,5.68
2022-09-24T09:20:48.985Z,5.32
2022-09-24T09:25:55.996Z,5.38
2022-09-24T09:31:22.130Z,5.93
2022-09-24T09:36:32.511Z,5.93
2022-09-24T09:41:55.547Z,6.90
2022-09-24T09:47:15.723Z,6.60
2022-09-24T09:52:23.639Z,7.18
2022-09-24T09:57:25.844Z,8.20
2022-09-24T10:02:31.477Z,7.57
2022-09-24T10:07:44.827Z,8.77
2022-09-24T10:12:47.103Z,10.90
2022-09-24T10:17:52.075Z,10.13
2022-09-24T10:22:57.924Z,11.05
2022-09-24T10:28:03.021Z,9.77
2022-09-24T10:33:06.433Z,9.30
2022-09-24T10:38:34.646Z,9.20
2022-09-24T10:43:36.669Z,10.27
2022-09-24T10:49:14.759Z,10.00
2022-09-24T10:54:38.376Z,11.90
2022-09-24T10:59:40.048Z,12.27
2022-09-24T11:05:02.535Z,12.13
2022-09-24T11:10:17.709Z,10.95
2022-09-24T11:15:41.060Z,13.00
2022-09-24T11:21:01.254Z,13.15
2022-09-24T11:26:25.843Z,10.38
2022-09-24T11:31:50.852Z,9.20
2022-09-24T11:36:55.306Z,10.18
2022-09-24T11:42:21.840Z,10.38
2022-09-24T11:47:26.146Z,10.73
2022-09-24T11:52:37.815Z,10.68
2022-09-24T11:57:49.654Z,10.52
2022-09-24T12:03:16.673Z,10.30
2022-09-24T12:08:30.047Z,10.45
2022-09-24T12:13:40.056Z,11.32
2022-09-24T12:18:52.434Z,11.10
2022-09-24T12:24:03.046Z,10.38
2022-09-24T12:29:07.957Z,10.25
2022-09-24T12:34:24.509Z,11.02
2022-09-24T12:44:48.929Z,10.65
2022-09-24T12:49:57.901Z,10.52
2022-09-24T12:55:02.004Z,11.00
2022-09-24T13:00:36.010Z,9.75
2022-09-24T13:05:40.417Z,11.05
2022-09-24T13:11:02.673Z,10.45
2022-09-24T13:16:21.070Z,10.90
2022-09-24T13:21:28.395Z,10.52
2022-09-24T13:26:34.537Z,9.88
2022-09-24T13:31:53.808Z,9.27
2022-09-24T13:37:02.496Z,9.70
2022-09-24T13:42:30.161Z,9.82
2022-09-24T13:47:46.210Z,9.75
2022-09-24T13:53:01.395Z,9.57
2022-09-24T13:58:03.128Z,8.20
2022-09-24T14:03:17.700Z,9.02
2022-09-24T14:08:22.502Z,9.25
2022-09-24T14:13:25.361Z,9.73
2022-09-24T14:18:28.589Z,10.10
2022-09-24T14:23:44.658Z,10.40
2022-09-24T14:28:46.446Z,11.20
2022-09-24T14:33:48.110Z,10.80
2022-09-24T14:38:56.395Z,10.65
2022-09-24T14:44:02.607Z,10.95
2022-09-24T14:49:28.247Z,11.00
2022-09-24T14:54:39.055Z,12.35
2022-09-24T14:59:42.065Z,11.93
2022-09-24T15:05:01.929Z,11.32
2022-09-24T15:10:06.948Z,11.18
2022-09-24T15:15:17.537Z,12.07
2022-09-24T15:20:19.290Z,12.98
2022-09-24T15:25:20.991Z,13.30
2022-09-24T15:30:22.614Z,12.75
2022-09-24T15:35:24.255Z,11.40
2022-09-24T15:40:26.113Z,13.25
2022-09-24T15:45:27.771Z,11.45
2022-09-24T15:50:30.916Z,11.48
2022-09-24T15:55:36.177Z,9.85
2022-09-24T16:00:37.760Z,9.73
2022-09-24T16:05:39.357Z,10.23
2022-09-24T16:10:41.991Z,11.18
2022-09-24T16:15:44.130Z,10.52
2022-09-24T16:20:45.855Z,10.13
2022-09-24T16:25:56.437Z,10.05
2022-09-24T16:30:58.327Z,11.18
2022-09-24T16:36:07.633Z,11.35
2022-09-24T16:41:09.272Z,11.30
2022-09-24T16:46:14.203Z,11.45
2022-09-24T16:51:19.763Z,12.00
2022-09-24T16:56:21.361Z,11.13
2022-09-24T17:01:23.097Z,10.65
2022-09-24T17:06:27.618Z,11.73
2022-09-24T17:11:29.238Z,11.32
2022-09-24T17:16:30.894Z,10.75
2022-09-24T17:21:32.597Z,11.27
2022-09-24T17:26:34.642Z,12.07
2022-09-24T17:31:36.369Z,16.30
2022-09-24T17:36:38.646Z,14.93
2022-09-24T17:41:40.296Z,15.68
2022-09-24T17:46:44.903Z,18.85
2022-09-24T17:51:46.637Z,15.75
2022-09-24T17:56:48.283Z,22.02
2022-09-24T18:01:49.909Z,15.70
2022-09-24T18:06:51.459Z,15.50
2022-09-24T18:11:53.005Z,16.45
2022-09-24T18:16:54.508Z,19.77
2022-09-24T18:21:56.040Z,17.88
2022-09-24T18:26:57.536Z,20.05
2022-09-24T18:31:59.055Z,21.55
2022-09-24T18:37:00.629Z,21.33
2022-09-24T18:42:02.193Z,18.05
2022-09-24T18:47:03.747Z,17.05
2022-09-24T18:52:05.237Z,16.52
2022-09-24T18:57:06.767Z,20.48
2022-09-24T19:02:09.883Z,23.38
2022-09-24T19:07:11.473Z,38.50
2022-09-24T19:12:12.999Z,28.75
2022-09-24T19:17:14.513Z,23.48
2022-09-24T19:22:16.051Z,21.08
2022-09-24T19:27:17.569Z,20.58
2022-09-24T19:32:19.128Z,20.95
2022-09-24T19:37:20.675Z,21.27
2022-09-24T19:42:22.192Z,19.23
2022-09-24T19:47:23.669Z,18.20
2022-09-24T19:52:25.336Z,18.33
2022-09-24T19:57:27.033Z,16.42
2022-09-24T20:02:28.700Z,17.15
2022-09-24T20:07:30.315Z,17.20
2022-09-24T20:12:31.848Z,16.08
2022-09-24T20:17:33.367Z,18.73
2022-09-24T20:22:34.986Z,19.50
2022-09-24T20:27:36.524Z,16.35
2022-09-24T20:32:38.018Z,19.95
2022-09-24T20:37:39.516Z,20.65
2022-09-24T20:42:41.061Z,22.15
2022-09-24T20:47:42.616Z,21.80
2022-09-24T20:52:45.140Z,21.10
2022-09-24T20:57:46.654Z,22.38
2022-09-24T21:02:48.265Z,22.52
2022-09-24T21:07:49.821Z,22.95
2022-09-24T21:12:51.498Z,20.05
2022-09-24T21:18:18.449Z,22.15
2022-09-24T21:23:14.550Z,23.58
2022-09-24T21:28:16.075Z,22.52
2022-09-24T21:33:17.620Z,25.48
2022-09-24T21:38:19.189Z,25.10
2022-09-24T21:43:22.392Z,26.38
2022-09-24T21:48:23.889Z,27.15
2022-09-24T21:53:25.460Z,31.42
2022-09-24T21:58:27.380Z,32.72
2022-09-24T22:03:29.328Z,31.13
2022-09-24T22:08:31.321Z,33.58
2022-09-24T22:13:33.858Z,33.47
2022-09-24T22:18:37.025Z,32.55
2022-09-24T22:23:39.725Z,30.88
2022-09-24T22:28:42.163Z,29.88
2022-09-24T22:33:44.159Z,28.65
2022-09-24T22:38:45.983Z,28.20
2022-09-24T22:43:47.548Z,26.73
2022-09-24T22:48:49.105Z,26.42
2022-09-24T22:53:51.711Z,26.42
2022-09-24T22:58:55.307Z,27.17
2022-09-24T23:03:57.963Z,26.65
2022-09-24T23:09:00.191Z,25.52
2022-09-24T23:14:10.839Z,26.08
2022-09-24T23:19:15.697Z,28.15
2022-09-24T23:24:19.823Z,27.08
2022-09-24T23:29:21.365Z,27.63
2022-09-24T23:34:22.848Z,28.33
2022-09-24T23:39:24.486Z,28.73
2022-09-24T23:44:26.078Z,27.27
2022-09-24T23:49:28.217Z,29.85
2022-09-24T23:54:29.730Z,31.77
2022-09-24T23:59:31.458Z,30.83
